Estación Meteorológica Peña el Pijo (Robertgarden) [ 02/03/23 04:48:19 CET ]

Fecha Hora Presion(HPa) Temp (°C) Humedad % Rocio (°C) Viento ( m/s) Direccion Lluvia 1Hora(mm) Lluvia 24H(mm) LLuvia Total(mm)
2010-Dec-24 01:01:16 1000.400 0.3 92 -0.8         16.57
2010-Dec-24 02:03:24 1000.300 0.3 90 -1.1         16.57
2010-Dec-24 03:01:17 1000.300 0.4 88 -1.4         16.57
2010-Dec-24 04:01:13 1000.800 0.7 84 -1.7 1.3 ENE     16.57
2010-Dec-24 05:01:12 1001.400 0.5 85 -1.8         16.57
2010-Dec-24 06:01:12 1001.500 0.3 84 -2.1         16.57
2010-Dec-24 07:01:12 1001.900 0.1 83 -2.4         16.57
2010-Dec-24 08:01:18 1002.100 -0.3 81 -3.1         16.57
2010-Dec-24 09:01:19 1002.600 -0.4 78 -3.8 1.2 NE     16.57
2010-Dec-24 10:01:13 1003.200 -0.2 78 -3.6         16.57
2010-Dec-24 11:01:12 1004.000 0.4 77 -3.2         16.57
2010-Dec-24 12:01:12 1004.000 1.6 73 -2.8         16.57
2010-Dec-24 13:01:14 1003.300 2.1 71 -2.6         16.57
2010-Dec-24 14:01:18 1003.500 2.8 65 -3.1     1.03 1.03 17.61
2010-Dec-24 15:01:14 1003.100 2.9 64 -3.3     1.03 2.07 18.64
2010-Dec-24 16:01:19 1003.500 2.4 62 -4.1       2.07 18.64
2010-Dec-24 17:01:13 1003.600 1.3 67 -4.2       2.07 18.64
2010-Dec-24 18:01:14 1004.000 0.2 71 -4.4       2.07 18.64
2010-Dec-24 19:01:15 1004.300 -0.2 73 -4.5       2.07 18.64
2010-Dec-24 20:01:17 1004.400 -0.2 74 -4.3       2.07 18.64
2010-Dec-24 21:01:14 1004.900 -0.4 74 -4.5       2.07 18.64
2010-Dec-24 22:01:14 1005.100 0.1 75 -3.8       2.07 18.64
2010-Dec-24 23:01:11 1005.100 -0.1 75 -4.0       2.07 18.64

Temperatura Máxima:    Temperatura Mínima:
Presión Máxima:1005.100 Hpa    Presión Mínima:1000.300 Hpa


Volver